createdAt,value
2022-08-16T00:01:41.784Z,22.97
2022-08-16T00:04:07.061Z,22.92
2022-08-16T00:06:33.490Z,22.88
2022-08-16T00:08:59.888Z,22.89
2022-08-16T00:11:26.390Z,22.89
2022-08-16T00:13:54.601Z,22.86
2022-08-16T00:17:06.559Z,22.85
2022-08-16T00:18:45.475Z,22.78
2022-08-16T00:21:11.848Z,22.77
2022-08-16T00:23:40.483Z,22.77
2022-08-16T00:26:36.073Z,22.76
2022-08-16T00:28:30.931Z,22.76
2022-08-16T00:30:59.299Z,22.70
2022-08-16T00:33:23.787Z,22.63
2022-08-16T00:35:50.147Z,22.56
2022-08-16T00:38:41.297Z,22.56
2022-08-16T00:40:43.911Z,22.52
2022-08-16T00:43:12.298Z,22.50
2022-08-16T00:45:35.846Z,22.46
2022-08-16T00:48:02.074Z,22.40
2022-08-16T00:50:36.375Z,22.37
2022-08-16T00:52:55.024Z,22.38
2022-08-16T00:55:21.248Z,22.41
2022-08-16T00:58:00.002Z,22.42
2022-08-16T01:00:13.972Z,22.45
2022-08-16T01:02:40.423Z,22.40
2022-08-16T01:05:11.524Z,22.35
2022-08-16T01:07:51.580Z,22.28
2022-08-16T01:09:59.639Z,22.27
2022-08-16T01:12:26.496Z,22.29
2022-08-16T01:14:53.323Z,22.29
2022-08-16T01:17:18.786Z,22.31
2022-08-16T01:19:45.244Z,22.30
2022-08-16T01:22:49.626Z,22.23
2022-08-16T01:24:51.552Z,22.19
2022-08-16T01:27:04.411Z,22.21
2022-08-16T01:29:37.450Z,22.23
2022-08-16T01:31:57.296Z,22.27
2022-08-16T01:34:26.492Z,22.33
2022-08-16T01:36:58.182Z,22.36
2022-08-16T01:39:16.408Z,22.28
2022-08-16T01:41:44.209Z,22.31
2022-08-16T01:44:09.170Z,22.33
2022-08-16T01:46:39.992Z,22.29
2022-08-16T01:49:01.967Z,22.28
2022-08-16T01:51:28.367Z,22.25
2022-08-16T01:53:55.782Z,22.20
2022-08-16T01:56:23.474Z,22.19
2022-08-16T01:58:48.019Z,22.16
2022-08-16T02:01:13.938Z,22.16
2022-08-16T02:03:40.252Z,22.10
2022-08-16T02:06:07.934Z,22.04
2022-08-16T02:08:34.241Z,21.95
2022-08-16T02:10:59.518Z,21.90
2022-08-16T02:13:27.836Z,21.97
2022-08-16T02:15:52.245Z,21.98
2022-08-16T02:18:18.914Z,21.99
2022-08-16T02:20:45.401Z,22.04
2022-08-16T02:23:11.485Z,22.06
2022-08-16T02:25:52.516Z,22.07
2022-08-16T02:28:04.336Z,22.13
2022-08-16T02:30:37.229Z,22.13
2022-08-16T02:32:57.057Z,22.17
2022-08-16T02:35:23.714Z,22.19
2022-08-16T02:37:52.573Z,22.16
2022-08-16T02:40:16.534Z,22.13
2022-08-16T02:42:42.646Z,22.11
2022-08-16T02:45:09.016Z,22.06
2022-08-16T02:48:00.345Z,22.09
2022-08-16T02:50:54.029Z,22.11
2022-08-16T02:52:29.436Z,22.13
2022-08-16T02:54:55.373Z,22.10
2022-08-16T02:57:20.966Z,22.09
2022-08-16T02:59:47.369Z,22.10
2022-08-16T03:02:13.785Z,22.09
2022-08-16T03:04:52.225Z,22.05
2022-08-16T03:07:06.514Z,22.01
2022-08-16T03:09:32.878Z,22.02
2022-08-16T03:11:59.262Z,22.03
2022-08-16T03:14:25.634Z,22.00
2022-08-16T03:16:59.706Z,22.01
2022-08-16T03:19:18.463Z,21.99
2022-08-16T03:21:44.824Z,22.01
2022-08-16T03:24:29.127Z,22.01
2022-08-16T03:26:37.587Z,21.99
2022-08-16T03:29:03.972Z,21.95
2022-08-16T03:31:34.728Z,21.90
2022-08-16T03:33:56.815Z,21.77
2022-08-16T03:36:30.848Z,21.75
2022-08-16T03:38:49.579Z,21.83
2022-08-16T03:41:24.424Z,21.84
2022-08-16T03:43:51.668Z,21.83
2022-08-16T03:46:08.682Z,21.78
2022-08-16T03:48:37.129Z,21.69
2022-08-16T03:51:01.443Z,21.74
2022-08-16T03:53:38.069Z,21.78
2022-08-16T03:55:54.195Z,21.74
2022-08-16T03:58:20.567Z,21.75
2022-08-16T04:00:46.982Z,21.72
2022-08-16T04:03:13.401Z,21.67
2022-08-16T04:05:39.757Z,21.72
2022-08-16T04:08:22.807Z,21.76
2022-08-16T04:10:36.989Z,21.77
2022-08-16T04:13:04.652Z,21.77
2022-08-16T04:15:25.324Z,21.79
2022-08-16T04:17:51.694Z,21.79
2022-08-16T04:20:31.137Z,21.79
2022-08-16T04:22:44.555Z,21.82
2022-08-16T04:25:10.954Z,21.83
2022-08-16T04:27:37.341Z,21.80
2022-08-16T04:30:03.901Z,21.75
2022-08-16T04:32:30.184Z,21.71
2022-08-16T04:34:56.548Z,21.69
2022-08-16T04:37:22.949Z,21.69
2022-08-16T04:39:57.060Z,21.67
2022-08-16T04:42:15.818Z,21.67
2022-08-16T04:44:53.496Z,21.68
2022-08-16T04:47:21.133Z,21.69
2022-08-16T04:49:44.019Z,21.66
2022-08-16T04:52:01.379Z,21.62
2022-08-16T04:54:27.775Z,21.57
2022-08-16T04:56:54.171Z,21.57
2022-08-16T04:59:20.641Z,21.66
2022-08-16T05:01:56.070Z,21.79
2022-08-16T05:04:19.637Z,21.89
2022-08-16T05:06:42.224Z,22.01
2022-08-16T05:09:06.195Z,22.13
2022-08-16T05:11:32.565Z,22.26
2022-08-16T05:14:05.599Z,22.37
2022-08-16T05:16:25.315Z,22.44
2022-08-16T05:18:51.723Z,22.50
2022-08-16T05:21:18.050Z,22.58
2022-08-16T05:23:49.499Z,22.72
2022-08-16T05:26:20.170Z,22.82
2022-08-16T05:28:38.965Z,22.98
2022-08-16T05:31:03.669Z,23.14
2022-08-16T05:33:30.051Z,23.23
2022-08-16T05:35:56.528Z,23.34
2022-08-16T05:38:32.585Z,23.43
2022-08-16T05:40:59.626Z,23.54
2022-08-16T05:43:15.770Z,23.76
2022-08-16T05:45:42.881Z,23.99
2022-08-16T05:48:08.520Z,24.14
2022-08-16T05:50:34.912Z,24.32
2022-08-16T05:53:01.377Z,24.51
2022-08-16T05:55:27.681Z,24.70
2022-08-16T05:57:54.113Z,24.93
2022-08-16T06:00:22.552Z,25.15
2022-08-16T06:02:46.950Z,25.38
2022-08-16T06:05:14.626Z,25.54
2022-08-16T06:07:39.736Z,25.63
2022-08-16T06:10:06.120Z,25.78
2022-08-16T06:12:32.516Z,25.96
2022-08-16T06:14:59.522Z,26.11
2022-08-16T06:17:25.287Z,26.25
2022-08-16T06:19:51.653Z,26.38
2022-08-16T06:22:37.266Z,26.60
2022-08-16T06:24:53.979Z,26.80
2022-08-16T06:27:10.824Z,27.01
2022-08-16T06:29:37.231Z,27.08
2022-08-16T06:32:04.302Z,27.13
2022-08-16T06:34:56.246Z,27.16
2022-08-16T06:36:59.357Z,27.21
2022-08-16T06:39:22.846Z,27.31
2022-08-16T06:41:49.201Z,27.47
2022-08-16T06:44:20.683Z,27.50
2022-08-16T06:46:41.929Z,27.57
2022-08-16T06:49:08.389Z,27.82
2022-08-16T06:51:45.173Z,28.15
2022-08-16T06:54:01.254Z,28.37
2022-08-16T06:56:27.680Z,28.53
2022-08-16T06:58:54.123Z,28.65
2022-08-16T07:01:44.516Z,28.81
2022-08-16T07:03:55.402Z,29.05
2022-08-16T07:06:13.251Z,29.29
2022-08-16T07:08:39.648Z,29.51
2022-08-16T07:11:06.082Z,29.68
2022-08-16T07:14:04.017Z,29.84
2022-08-16T07:15:58.831Z,30.02
2022-08-16T07:18:25.195Z,30.14
2022-08-16T07:20:51.707Z,30.27
2022-08-16T07:23:18.070Z,30.45
2022-08-16T07:25:44.440Z,30.60
2022-08-16T07:28:12.155Z,30.75
2022-08-16T07:30:45.055Z,30.77
2022-08-16T07:33:03.633Z,30.91
2022-08-16T07:35:30.000Z,31.13
2022-08-16T07:37:56.370Z,31.35
2022-08-16T07:40:42.809Z,31.50
2022-08-16T07:42:49.333Z,31.66
2022-08-16T07:45:16.878Z,31.78
2022-08-16T07:47:42.168Z,31.87
2022-08-16T07:50:08.324Z,31.96
2022-08-16T07:52:34.730Z,32.09
2022-08-16T07:55:01.209Z,32.19
2022-08-16T07:57:27.541Z,32.31
2022-08-16T07:59:53.940Z,32.46
2022-08-16T08:02:21.024Z,32.68
2022-08-16T08:04:46.683Z,32.83
2022-08-16T08:07:13.122Z,32.96
2022-08-16T08:09:43.479Z,33.08
2022-08-16T08:12:05.891Z,33.25
2022-08-16T08:14:32.230Z,33.35
2022-08-16T08:16:58.750Z,33.48
2022-08-16T08:19:25.107Z,33.64
2022-08-16T08:22:00.554Z,33.72
2022-08-16T08:24:17.946Z,33.78
2022-08-16T08:26:44.413Z,33.89
2022-08-16T08:29:10.763Z,33.95
2022-08-16T08:31:37.124Z,34.10
2022-08-16T08:34:04.812Z,34.25
2022-08-16T08:36:33.040Z,34.32
2022-08-16T08:38:56.232Z,34.43
2022-08-16T08:41:27.732Z,34.54
2022-08-16T08:43:50.433Z,34.61
2022-08-16T08:46:18.412Z,34.74
2022-08-16T08:48:43.802Z,34.76
2022-08-16T08:51:08.776Z,34.80
2022-08-16T08:53:34.630Z,34.82
2022-08-16T08:56:00.998Z,34.88
2022-08-16T08:58:34.323Z,34.96
2022-08-16T09:00:53.827Z,35.06
2022-08-16T09:03:20.187Z,35.09
2022-08-16T09:05:51.265Z,35.18
2022-08-16T09:08:12.934Z,35.24
2022-08-16T09:10:39.524Z,35.31
2022-08-16T09:13:05.672Z,35.37
2022-08-16T09:15:33.041Z,35.41
2022-08-16T09:17:58.448Z,35.54
2022-08-16T09:20:25.384Z,35.63
2022-08-16T09:22:52.529Z,35.69
2022-08-16T09:25:20.681Z,35.70
2022-08-16T09:27:56.896Z,35.69
2022-08-16T09:30:34.394Z,35.69
2022-08-16T09:32:37.037Z,35.79
2022-08-16T09:35:03.427Z,35.86
2022-08-16T09:37:30.167Z,35.87
2022-08-16T09:39:56.217Z,35.83
2022-08-16T09:42:22.534Z,35.79
2022-08-16T09:45:12.200Z,35.84
2022-08-16T09:47:15.435Z,35.91
2022-08-16T09:49:41.800Z,35.98
2022-08-16T09:52:09.383Z,36.02
2022-08-16T09:54:34.551Z,36.06
2022-08-16T09:57:00.929Z,36.12
2022-08-16T09:59:30.742Z,36.15
2022-08-16T10:01:54.638Z,36.00
2022-08-16T10:04:30.389Z,35.98
2022-08-16T10:06:46.633Z,36.06
2022-08-16T10:09:12.952Z,35.98
2022-08-16T10:11:50.216Z,35.84
2022-08-16T10:14:05.716Z,35.76
2022-08-16T10:16:32.076Z,35.75
2022-08-16T10:19:01.838Z,35.87
2022-08-16T10:21:24.829Z,35.78
2022-08-16T10:23:51.193Z,35.52
2022-08-16T10:27:16.446Z,35.39
2022-08-16T10:28:44.125Z,35.40
2022-08-16T10:31:11.952Z,35.56
2022-08-16T10:33:40.471Z,35.65
2022-08-16T10:36:04.121Z,35.66
2022-08-16T10:38:29.616Z,35.73
2022-08-16T10:40:55.994Z,35.78
2022-08-16T10:43:22.362Z,35.89
2022-08-16T10:46:00.595Z,35.91
2022-08-16T10:48:27.992Z,35.71
2022-08-16T10:50:41.510Z,35.51
2022-08-16T10:53:07.890Z,35.27
2022-08-16T10:55:40.260Z,35.01
2022-08-16T10:58:00.770Z,34.77
2022-08-16T11:00:27.131Z,34.55
2022-08-16T11:02:59.983Z,34.47
2022-08-16T11:05:19.907Z,34.62
2022-08-16T11:07:52.447Z,34.87
2022-08-16T11:10:20.709Z,35.06
2022-08-16T11:12:39.033Z,35.25
2022-08-16T11:15:13.305Z,35.38
2022-08-16T11:17:32.669Z,35.50
2022-08-16T11:20:40.727Z,35.53
2022-08-16T11:22:47.060Z,35.54
2022-08-16T11:25:11.874Z,35.41
2022-08-16T11:27:19.958Z,35.41
2022-08-16T11:29:43.926Z,35.40
2022-08-16T11:32:10.321Z,35.31
2022-08-16T11:35:05.949Z,35.12
2022-08-16T11:37:03.187Z,34.94
2022-08-16T11:39:29.686Z,34.75
2022-08-16T11:41:56.056Z,34.56
2022-08-16T11:44:52.938Z,34.35
2022-08-16T11:46:48.920Z,34.13
2022-08-16T11:49:15.301Z,33.89
2022-08-16T11:51:41.789Z,33.63
2022-08-16T11:54:11.611Z,33.38
2022-08-16T11:56:51.876Z,33.11
2022-08-16T11:59:01.068Z,32.76
2022-08-16T12:01:29.685Z,32.42
2022-08-16T12:03:53.847Z,32.03
2022-08-16T12:06:30.288Z,31.74
2022-08-16T12:08:46.661Z,31.35
2022-08-16T12:11:13.020Z,30.98
2022-08-16T12:13:39.414Z,30.72
2022-08-16T12:16:05.807Z,30.54
2022-08-16T12:18:32.313Z,30.42
2022-08-16T12:20:58.605Z,30.37
2022-08-16T12:23:24.993Z,30.28
2022-08-16T12:25:51.355Z,30.24
2022-08-16T12:28:36.783Z,30.19
2022-08-16T12:30:44.186Z,30.12
2022-08-16T12:33:10.554Z,30.11
2022-08-16T12:35:36.921Z,30.16
2022-08-16T12:38:38.005Z,30.13
2022-08-16T12:40:29.940Z,30.09
2022-08-16T12:42:59.032Z,30.09
2022-08-16T12:45:22.702Z,30.10
2022-08-16T12:47:49.081Z,30.12
2022-08-16T12:50:15.658Z,30.10
2022-08-16T12:52:44.379Z,30.05
2022-08-16T12:55:08.603Z,30.01
2022-08-16T12:57:36.631Z,30.13
2022-08-16T13:00:01.052Z,30.38
2022-08-16T13:02:33.866Z,30.73
2022-08-16T13:04:53.813Z,31.03
2022-08-16T13:07:20.184Z,31.23
2022-08-16T13:09:46.613Z,31.36
2022-08-16T13:12:12.978Z,31.39
2022-08-16T13:14:39.385Z,31.37
2022-08-16T13:17:06.712Z,31.40
2022-08-16T13:20:03.381Z,31.40
2022-08-16T13:21:58.580Z,31.41
2022-08-16T13:24:24.944Z,31.44
2022-08-16T13:26:53.343Z,31.45
2022-08-16T13:29:17.702Z,31.44
2022-08-16T13:31:44.106Z,31.43
2022-08-16T13:34:10.543Z,31.44
2022-08-16T13:36:48.604Z,31.44
2022-08-16T13:39:03.282Z,31.43
2022-08-16T13:41:30.356Z,31.43
2022-08-16T13:43:57.826Z,31.39
2022-08-16T13:46:22.502Z,31.36
2022-08-16T13:48:48.931Z,31.34
2022-08-16T13:51:16.952Z,31.30
2022-08-16T13:53:41.695Z,31.26
2022-08-16T13:56:08.131Z,31.22
2022-08-16T13:58:40.218Z,31.16
2022-08-16T14:01:00.932Z,31.11
2022-08-16T14:03:27.308Z,31.07
2022-08-16T14:05:53.759Z,31.04
2022-08-16T14:08:23.903Z,31.02
2022-08-16T14:10:46.497Z,30.99
2022-08-16T14:13:19.922Z,30.97
2022-08-16T14:15:41.900Z,30.94
2022-08-16T14:18:15.406Z,30.92
2022-08-16T14:20:32.050Z,30.90
2022-08-16T14:22:58.403Z,30.86
2022-08-16T14:25:24.792Z,30.83
2022-08-16T14:27:54.395Z,30.79
2022-08-16T14:30:17.556Z,30.77
2022-08-16T14:32:46.728Z,30.72
2022-08-16T14:35:10.341Z,30.68
2022-08-16T14:37:36.730Z,30.64
2022-08-16T14:40:03.580Z,30.60
2022-08-16T14:42:29.540Z,30.57
2022-08-16T14:44:55.918Z,30.54
2022-08-16T14:47:22.354Z,30.51
2022-08-16T14:49:48.736Z,30.50
2022-08-16T14:52:17.842Z,30.50
2022-08-16T14:54:41.491Z,30.51
2022-08-16T14:57:07.869Z,30.50
2022-08-16T14:59:34.403Z,30.50
2022-08-16T15:02:01.055Z,30.50
2022-08-16T15:04:39.555Z,30.51
2022-08-16T15:06:53.455Z,30.50
2022-08-16T15:09:19.823Z,30.49
2022-08-16T15:11:46.223Z,30.47
2022-08-16T15:14:12.590Z,30.46
2022-08-16T15:16:39.015Z,30.46
2022-08-16T15:19:05.375Z,30.45
2022-08-16T15:21:31.865Z,30.43
2022-08-16T15:23:58.223Z,30.40
2022-08-16T15:26:34.569Z,30.38
2022-08-16T15:28:51.049Z,30.35
2022-08-16T15:31:17.348Z,30.31
2022-08-16T15:33:47.322Z,30.28
2022-08-16T15:36:10.190Z,30.25
2022-08-16T15:39:02.747Z,30.20
2022-08-16T15:41:03.001Z,30.17
2022-08-16T15:43:38.935Z,30.14
2022-08-16T15:45:55.939Z,30.09
2022-08-16T15:48:22.169Z,30.05
2022-08-16T15:50:48.641Z,30.01
2022-08-16T15:53:15.002Z,29.97
2022-08-16T15:55:41.363Z,29.93
2022-08-16T15:58:35.150Z,29.87
2022-08-16T16:00:34.348Z,29.81
2022-08-16T16:03:00.582Z,29.77
2022-08-16T16:05:26.944Z,29.72
2022-08-16T16:07:56.737Z,29.67
2022-08-16T16:10:19.740Z,29.62
2022-08-16T16:12:50.942Z,29.57
2022-08-16T16:15:12.486Z,29.51
2022-08-16T16:17:38.891Z,29.46
2022-08-16T16:20:05.323Z,29.40
2022-08-16T16:22:31.689Z,29.34
2022-08-16T16:24:58.050Z,29.29
2022-08-16T16:27:24.419Z,29.24
2022-08-16T16:29:58.093Z,29.19
2022-08-16T16:32:17.175Z,29.15
2022-08-16T16:34:43.559Z,29.10
2022-08-16T16:37:10.120Z,29.06
2022-08-16T16:39:36.352Z,29.01
2022-08-16T16:42:02.710Z,28.98
2022-08-16T16:44:33.477Z,28.94
2022-08-16T16:46:56.908Z,28.91
2022-08-16T16:49:21.813Z,28.87
2022-08-16T16:51:50.187Z,28.83
2022-08-16T16:54:27.507Z,28.80
2022-08-16T16:56:49.496Z,28.76
2022-08-16T16:59:07.433Z,28.72
2022-08-16T17:01:50.134Z,28.70
2022-08-16T17:04:00.179Z,28.67
2022-08-16T17:06:26.546Z,28.64
2022-08-16T17:08:52.958Z,28.61
2022-08-16T17:11:19.326Z,28.58
2022-08-16T17:13:45.726Z,28.54
2022-08-16T17:16:18.427Z,28.53
2022-08-16T17:19:16.453Z,28.49
2022-08-16T17:21:04.921Z,28.46
2022-08-16T17:23:58.954Z,28.42
2022-08-16T17:25:57.718Z,28.39
2022-08-16T17:28:59.870Z,28.35
2022-08-16T17:30:50.481Z,28.30
2022-08-16T17:33:16.986Z,28.25
2022-08-16T17:35:43.369Z,28.20
2022-08-16T17:38:11.110Z,28.18
2022-08-16T17:40:47.476Z,28.16
2022-08-16T17:43:02.513Z,28.13
2022-08-16T17:45:28.886Z,28.10
2022-08-16T17:47:55.302Z,28.05
2022-08-16T17:50:21.701Z,28.00
2022-08-16T17:52:48.938Z,27.97
2022-08-16T17:55:14.575Z,27.93
2022-08-16T17:57:41.003Z,27.88
2022-08-16T18:00:07.447Z,27.86
2022-08-16T18:02:53.149Z,27.79
2022-08-16T18:05:00.315Z,27.78
2022-08-16T18:07:26.670Z,27.73
2022-08-16T18:09:53.088Z,27.68
2022-08-16T18:12:20.516Z,27.63
2022-08-16T18:14:52.111Z,27.60
2022-08-16T18:17:12.244Z,27.56
2022-08-16T18:19:38.612Z,27.52
2022-08-16T18:22:05.010Z,27.50
2022-08-16T18:24:31.384Z,27.48
2022-08-16T18:27:24.714Z,27.44
2022-08-16T18:29:24.231Z,27.42
2022-08-16T18:31:50.661Z,27.38
2022-08-16T18:34:17.021Z,27.32
2022-08-16T18:36:43.429Z,27.33
2022-08-16T18:39:09.831Z,27.30
2022-08-16T18:41:36.210Z,27.26
2022-08-16T18:44:24.835Z,27.19
2022-08-16T18:46:29.003Z,27.21
2022-08-16T18:48:55.489Z,27.21
2022-08-16T18:51:25.272Z,27.18
2022-08-16T18:53:48.283Z,27.14
2022-08-16T18:56:14.640Z,27.13
2022-08-16T18:58:41.007Z,27.13
2022-08-16T19:01:07.471Z,27.11
2022-08-16T19:03:33.773Z,27.08
2022-08-16T19:06:00.212Z,27.03
2022-08-16T19:08:26.613Z,26.98
2022-08-16T19:10:52.976Z,26.92
2022-08-16T19:13:19.408Z,26.90
2022-08-16T19:15:45.826Z,26.91
2022-08-16T19:18:12.269Z,26.87
2022-08-16T19:20:38.706Z,26.87
2022-08-16T19:23:10.637Z,26.87
2022-08-16T19:25:47.417Z,26.87
2022-08-16T19:27:57.858Z,26.85
2022-08-16T19:30:24.214Z,26.79
2022-08-16T19:32:50.751Z,26.79
2022-08-16T19:35:16.956Z,26.79
2022-08-16T19:37:55.910Z,26.74
2022-08-16T19:40:36.046Z,26.73
2022-08-16T19:42:36.196Z,26.72
2022-08-16T19:45:02.624Z,26.68
2022-08-16T19:47:28.959Z,26.64
2022-08-16T19:49:55.319Z,26.65
2022-08-16T19:52:21.826Z,26.66
2022-08-16T19:54:48.260Z,26.66
2022-08-16T19:57:14.641Z,26.66
2022-08-16T19:59:41.016Z,26.65
2022-08-16T20:02:07.365Z,26.64
2022-08-16T20:04:33.732Z,26.63
2022-08-16T20:07:00.220Z,26.63
2022-08-16T20:09:26.586Z,26.62
2022-08-16T20:11:52.983Z,26.59
2022-08-16T20:14:25.261Z,26.56
2022-08-16T20:16:45.748Z,26.53
2022-08-16T20:19:12.106Z,26.53
2022-08-16T20:21:38.513Z,26.50
2022-08-16T20:24:30.260Z,26.50
2022-08-16T20:26:31.258Z,26.49
2022-08-16T20:28:57.631Z,26.51
2022-08-16T20:31:24.056Z,26.49
2022-08-16T20:33:50.415Z,26.49
2022-08-16T20:36:16.891Z,26.45
2022-08-16T20:38:43.146Z,26.40
2022-08-16T20:41:09.519Z,26.39
2022-08-16T20:43:35.997Z,26.38
2022-08-16T20:46:02.433Z,26.36
2022-08-16T20:48:28.787Z,26.35
2022-08-16T20:50:55.199Z,26.35
2022-08-16T20:53:21.628Z,26.36
2022-08-16T20:55:48.004Z,26.36
2022-08-16T20:58:14.493Z,26.31
2022-08-16T21:00:40.928Z,26.27
2022-08-16T21:03:10.922Z,26.25
2022-08-16T21:05:39.598Z,26.21
2022-08-16T21:08:28.741Z,26.20
2022-08-16T21:10:33.182Z,26.18
2022-08-16T21:12:59.948Z,26.13
2022-08-16T21:15:26.776Z,26.17
2022-08-16T21:17:53.709Z,26.19
2022-08-16T21:20:21.865Z,26.14
2022-08-16T21:22:50.063Z,26.13
2022-08-16T21:25:16.481Z,26.09
2022-08-16T21:28:40.600Z,26.04
2022-08-16T21:30:09.861Z,25.99
2022-08-16T21:32:36.502Z,25.96
2022-08-16T21:35:03.239Z,25.96
2022-08-16T21:37:29.861Z,25.93
2022-08-16T21:39:56.543Z,25.90
2022-08-16T21:42:23.157Z,25.89
2022-08-16T21:44:49.872Z,25.88
2022-08-16T21:47:16.464Z,25.86
2022-08-16T21:49:43.142Z,25.84
2022-08-16T21:52:09.910Z,25.77
2022-08-16T21:54:36.649Z,25.75
2022-08-16T21:57:06.438Z,25.75
2022-08-16T21:59:33.615Z,25.69
2022-08-16T22:02:00.735Z,25.64
2022-08-16T22:04:37.821Z,25.63
2022-08-16T22:06:54.365Z,25.53
2022-08-16T22:09:20.993Z,25.56
2022-08-16T22:11:47.304Z,25.54
2022-08-16T22:14:13.784Z,25.46
2022-08-16T22:16:40.132Z,25.46
2022-08-16T22:19:06.550Z,25.43
2022-08-16T22:21:33.085Z,25.39
2022-08-16T22:23:59.465Z,25.43
2022-08-16T22:26:29.014Z,25.38
2022-08-16T22:28:52.334Z,25.36
2022-08-16T22:31:18.817Z,25.27
2022-08-16T22:33:45.175Z,25.30
2022-08-16T22:36:11.546Z,25.32
2022-08-16T22:38:53.852Z,25.28
2022-08-16T22:41:04.322Z,25.23
2022-08-16T22:43:30.683Z,25.19
2022-08-16T22:45:57.050Z,25.13
2022-08-16T22:48:23.407Z,25.15
2022-08-16T22:50:49.798Z,25.18
2022-08-16T22:53:16.175Z,25.16
2022-08-16T22:55:42.545Z,25.10
2022-08-16T22:58:08.927Z,25.07
2022-08-16T23:00:35.309Z,25.06
2022-08-16T23:03:01.668Z,25.03
2022-08-16T23:05:28.037Z,24.98
2022-08-16T23:07:54.403Z,25.01
2022-08-16T23:10:20.793Z,24.99
2022-08-16T23:12:47.249Z,24.88
2022-08-16T23:15:13.764Z,24.90
2022-08-16T23:17:39.996Z,24.87
2022-08-16T23:20:06.365Z,24.88
2022-08-16T23:22:32.750Z,24.90
2022-08-16T23:24:59.134Z,24.87
2022-08-16T23:27:25.498Z,24.84
2022-08-16T23:29:51.858Z,24.85
2022-08-16T23:32:18.281Z,24.79
2022-08-16T23:34:44.745Z,24.80
2022-08-16T23:37:11.102Z,24.74
2022-08-16T23:39:37.602Z,24.64
2022-08-16T23:42:03.879Z,24.59
2022-08-16T23:44:55.924Z,24.54
2022-08-16T23:46:56.807Z,24.48
2022-08-16T23:50:00.829Z,24.44
2022-08-16T23:51:49.718Z,24.49
2022-08-16T23:54:16.102Z,24.59
2022-08-16T23:56:42.464Z,24.62
2022-08-16T23:59:08.871Z,24.59
